»·PEaware :: GEC2266 KLAS-KSAN

GEC2266 :: KLAS-KSAN

FLIGHT INFORMATION

Flight Status: Arrived
Operator:
Lufthansa Cargo
More flights by this operator :: More flights under this callsign
Pilot: Magnus A. (27892)
Aircraft: AIRBUS A300B4-600
(A306)
More flights by this aircraft type
Origin: KLAS McCarran Intl
United States
Destination: KSAN San Diego Intl-Lindbergh
United States
More flights between these airports :: More routes between these airports
Route: +BOACH8 LVELL LUCKI1
File this flight plan on PilotEdge
Remarks:
Altitude:
(Current/Filed)
34,000ft
Speed:
(Current/Filed)
350kts
Departed: 26-Sep-20 10:11 AM
Arrived: 26-Sep-20 11:58 AM
Distance/Time
Traveled:
225nm/1:47
Distance/Time
To Go:
Arrived

Flight Plot

Page will automatically refresh every two minutes.

Flight plan parsing failed; only flown route is shown


Map Options




Map Legend


Flown Route
Filed Route
Departure Airport
Arrival Airport
Navaid (VOR, NDB)
Fix

Horizontal Profiles

Position Reports

Time Latitude Longitude Heading Altitude Ground
Speed
26-Sep-20 09:28 36.079636 -115.125582 89 2042ft 0kts
26-Sep-20 09:29 36.079636 -115.125582 89 2042ft 0kts
26-Sep-20 09:30 36.079636 -115.125582 89 2042ft 0kts
26-Sep-20 09:31 36.079636 -115.125582 89 2042ft 0kts
26-Sep-20 09:32 36.079636 -115.125582 89 2042ft 0kts
26-Sep-20 09:33 36.079636 -115.125582 89 2042ft 0kts
26-Sep-20 09:34 36.079636 -115.125582 89 2042ft 0kts
26-Sep-20 09:35 36.079636 -115.125582 89 2042ft 0kts
26-Sep-20 09:36 36.079636 -115.125582 89 2042ft 0kts
26-Sep-20 09:37 36.079636 -115.125582 89 2042ft 0kts
26-Sep-20 09:38 36.079636 -115.125582 89 2042ft 0kts
26-Sep-20 09:39 36.079636 -115.125582 89 2042ft 0kts
26-Sep-20 09:40 36.079636 -115.125582 89 2042ft 0kts
26-Sep-20 09:41 36.079636 -115.125582 89 2042ft 0kts
26-Sep-20 09:42 36.079636 -115.125582 89 2042ft 0kts
26-Sep-20 09:43 36.079636 -115.125582 89 2042ft 0kts
26-Sep-20 09:44 36.079636 -115.125582 89 2042ft 0kts
26-Sep-20 09:45 36.079636 -115.125582 89 2042ft 0kts
26-Sep-20 09:46 36.079636 -115.125582 89 2042ft 0kts
26-Sep-20 09:47 36.079636 -115.125582 89 2042ft 0kts
26-Sep-20 09:48 36.079636 -115.125582 89 2042ft 0kts
26-Sep-20 09:49 36.079636 -115.125583 89 2042ft 0kts
26-Sep-20 09:50 36.079867 -115.125996 153 2042ft 2kts
26-Sep-20 09:51 36.080367 -115.125875 230 2041ft 0kts
26-Sep-20 09:52 36.080369 -115.125872 231 2041ft 0kts
26-Sep-20 09:53 36.080369 -115.125872 231 2041ft 0kts
26-Sep-20 09:54 36.080369 -115.125872 231 2041ft 0kts
26-Sep-20 09:55 36.080369 -115.125872 231 2041ft 0kts
26-Sep-20 09:56 36.080369 -115.125872 231 2041ft 0kts
26-Sep-20 09:57 36.080369 -115.125872 231 2041ft 0kts
26-Sep-20 09:58 36.080369 -115.125872 231 2041ft 0kts
26-Sep-20 09:59 36.080369 -115.125872 231 2041ft 0kts
26-Sep-20 10:00 36.080369 -115.125872 231 2041ft 0kts
26-Sep-20 10:01 36.079977 -115.126321 214 2043ft 5kts
26-Sep-20 10:02 36.078266 -115.124758 92 2043ft 10kts
26-Sep-20 10:03 36.077696 -115.121704 132 2041ft 0kts
26-Sep-20 10:04 36.077696 -115.121704 132 2041ft 0kts
26-Sep-20 10:05 36.077696 -115.121704 132 2041ft 0kts
26-Sep-20 10:06 36.077696 -115.121704 132 2041ft 0kts
26-Sep-20 10:07 36.077473 -115.121454 142 2041ft 0kts
26-Sep-20 10:08 36.077473 -115.121454 142 2041ft 0kts
26-Sep-20 10:09 36.076447 -115.121565 243 2043ft 7kts
26-Sep-20 10:10 36.076353 -115.139135 270 2085ft 166kts
26-Sep-20 10:11 36.077585 -115.213315 271 5169ft 240kts
26-Sep-20 10:12 36.080153 -115.297595 259 7049ft 225kts
26-Sep-20 10:13 36.028363 -115.306551 131 8722ft 295kts
26-Sep-20 10:14 36.013535 -115.193996 85 11278ft 356kts
26-Sep-20 10:15 36.023129 -115.067381 85 10595ft 372kts
26-Sep-20 10:16 36.037316 -114.942782 74 10064ft 350kts
26-Sep-20 10:29 36.079635 -115.125609 89 2042ft 0kts
26-Sep-20 10:30 36.079635 -115.125609 89 2042ft 0kts
26-Sep-20 10:31 36.079635 -115.125609 89 2042ft 0kts
26-Sep-20 10:32 36.079635 -115.125609 89 2042ft 0kts
26-Sep-20 10:34 36.079635 -115.125609 89 2042ft 0kts
26-Sep-20 10:35 36.079635 -115.125609 89 2042ft 0kts
26-Sep-20 10:36 36.079635 -115.125609 89 2042ft 0kts
26-Sep-20 10:37 36.079635 -115.125609 89 2042ft 0kts
26-Sep-20 10:38 36.079635 -115.125609 89 2042ft 0kts
26-Sep-20 10:39 36.079635 -115.125609 89 2042ft 0kts
26-Sep-20 10:40 36.079635 -115.125609 89 2042ft 0kts
26-Sep-20 10:41 36.079635 -115.125609 89 2042ft 0kts
26-Sep-20 10:42 36.079635 -115.125609 89 2042ft 0kts
26-Sep-20 10:43 36.079635 -115.125609 89 2042ft 0kts
26-Sep-20 10:44 36.079635 -115.125609 89 2042ft 0kts
26-Sep-20 10:45 36.079635 -115.125609 89 2042ft 0kts
26-Sep-20 10:46 36.079635 -115.125610 89 2042ft 0kts
26-Sep-20 10:47 36.079878 -115.126006 155 2042ft 2kts
26-Sep-20 10:48 36.080007 -115.126056 173 2042ft 0kts
26-Sep-20 10:49 36.080007 -115.126056 173 2042ft 0kts
26-Sep-20 10:50 36.080007 -115.126056 173 2042ft 0kts
26-Sep-20 10:50 36.080007 -115.126056 173 2042ft 0kts
26-Sep-20 10:51 36.080007 -115.126056 173 2042ft 0kts
26-Sep-20 10:52 36.080007 -115.126056 173 2042ft 0kts
26-Sep-20 10:54 36.080007 -115.126056 173 2042ft 0kts
26-Sep-20 10:54 36.080007 -115.126056 173 2042ft 0kts
26-Sep-20 10:55 36.080007 -115.126056 173 2042ft 0kts
26-Sep-20 10:56 36.080005 -115.126056 173 2042ft 0kts
26-Sep-20 10:57 36.079529 -115.126242 202 2043ft 3kts
26-Sep-20 10:58 36.078277 -115.124864 89 2043ft 10kts
26-Sep-20 10:59 36.077553 -115.121597 126 2042ft 7kts
26-Sep-20 11:00 36.077398 -115.121375 146 2041ft 1kts
26-Sep-20 11:01 36.077412 -115.121385 142 2041ft 0kts
26-Sep-20 11:02 36.077412 -115.121385 142 2041ft 0kts
26-Sep-20 11:03 36.077412 -115.121385 142 2041ft 0kts
26-Sep-20 11:04 36.077412 -115.121385 142 2041ft 0kts
26-Sep-20 11:05 36.077412 -115.121385 142 2041ft 0kts
26-Sep-20 11:06 36.077412 -115.121385 142 2041ft 0kts
26-Sep-20 11:07 36.077412 -115.121385 142 2041ft 0kts
26-Sep-20 11:08 36.076740 -115.121284 193 2043ft 5kts
26-Sep-20 11:09 36.076217 -115.141357 269 2099ft 200kts
26-Sep-20 11:10 36.075605 -115.217289 270 6217ft 225kts
26-Sep-20 11:11 36.036192 -115.268722 204 7050ft 228kts
26-Sep-20 11:12 35.965299 -115.301620 190 7061ft 286kts
26-Sep-20 11:13 35.885264 -115.311881 186 10229ft 296kts
26-Sep-20 11:14 35.802113 -115.309544 175 12996ft 306kts
26-Sep-20 11:15 35.716484 -115.299703 176 14215ft 313kts
26-Sep-20 11:16 35.627696 -115.296578 183 18025ft 328kts
26-Sep-20 11:17 35.533965 -115.300301 184 21432ft 346kts
26-Sep-20 11:18 35.435531 -115.304221 184 24013ft 364kts
26-Sep-20 11:19 35.331868 -115.308336 184 26569ft 378kts
26-Sep-20 11:20 35.226436 -115.312463 184 30736ft 379kts
26-Sep-20 11:21 35.121822 -115.316545 184 33786ft 375kts
26-Sep-20 11:22 35.008943 -115.321094 183 33960ft 450kts
26-Sep-20 11:23 34.884231 -115.325987 181 33943ft 453kts
26-Sep-20 11:24 34.752460 -115.347594 198 33937ft 486kts
26-Sep-20 11:25 34.624213 -115.401800 200 33971ft 485kts
26-Sep-20 11:26 34.496613 -115.457008 200 34056ft 485kts
26-Sep-20 11:27 34.370687 -115.511267 198 33579ft 456kts
26-Sep-20 11:28 34.260961 -115.580617 212 32578ft 444kts
26-Sep-20 11:29 34.152517 -115.646565 200 31585ft 438kts
26-Sep-20 11:30 34.040530 -115.697362 202 30600ft 430kts
26-Sep-20 11:31 33.929527 -115.749072 202 29607ft 423kts
26-Sep-20 11:32 33.822046 -115.801156 203 28608ft 415kts
26-Sep-20 11:33 33.715661 -115.852077 202 27232ft 411kts
26-Sep-20 11:34 33.608714 -115.901917 202 25394ft 411kts
26-Sep-20 11:35 33.508788 -115.961791 227 23917ft 389kts
26-Sep-20 11:36 33.447684 -116.062323 236 22987ft 370kts
26-Sep-20 11:37 33.387737 -116.165516 236 20684ft 383kts
26-Sep-20 11:38 33.320225 -116.256029 212 19189ft 373kts
26-Sep-20 11:39 33.231126 -116.311057 208 18055ft 352kts
26-Sep-20 11:40 33.147721 -116.360406 207 16240ft 339kts
26-Sep-20 11:41 33.068407 -116.407023 207 14045ft 321kts
26-Sep-20 11:42 32.990806 -116.458822 219 12217ft 324kts
26-Sep-20 11:43 32.923198 -116.526970 220 10785ft 318kts
26-Sep-20 11:44 32.860811 -116.589986 220 9926ft 261kts
26-Sep-20 11:45 32.810805 -116.640405 220 9006ft 228kts
26-Sep-20 11:46 32.766655 -116.691633 239 8025ft 225kts
26-Sep-20 11:47 32.734957 -116.758710 240 7220ft 234kts
26-Sep-20 11:48 32.705005 -116.823013 241 6484ft 202kts
26-Sep-20 11:49 32.680099 -116.876579 241 5539ft 170kts
26-Sep-20 11:50 32.670229 -116.925095 283 5042ft 155kts
26-Sep-20 11:51 32.681526 -116.974828 286 3748ft 157kts
26-Sep-20 11:52 32.692939 -117.021933 286 2205ft 148kts
26-Sep-20 11:53 32.704068 -117.067696 286 577ft 137kts
26-Sep-20 11:54 32.714234 -117.109611 286 532ft 131kts
26-Sep-20 11:55 32.724512 -117.152115 286 539ft 130kts
26-Sep-20 11:56 32.734163 -117.192377 285 29ft 63kts
26-Sep-20 11:57 32.734050 -117.195506 248 29ft 8kts
26-Sep-20 11:58 32.734031 -117.195562 248 29ft 0kts
26-Sep-20 11:59 32.734099 -117.196514 268 29ft 9kts
26-Sep-20 12:00 32.735144 -117.200382 287 29ft 12kts
26-Sep-20 12:01 32.736032 -117.204290 278 29ft 11kts
26-Sep-20 12:02 32.734822 -117.206877 182 29ft 8kts
26-Sep-20 12:03 32.733020 -117.207777 235 29ft 0kts
26-Sep-20 12:04 32.733020 -117.207777 235 29ft 0kts
26-Sep-20 12:05 32.733020 -117.207777 235 29ft 0kts
26-Sep-20 12:06 32.733020 -117.207777 235 29ft 0kts
26-Sep-20 12:07 32.733020 -117.207777 235 29ft 0kts
26-Sep-20 12:08 32.733020 -117.207777 235 29ft 0kts
26-Sep-20 12:09 32.733020 -117.207777 235 29ft 0kts
26-Sep-20 12:10 32.733020 -117.207777 235 29ft 0kts

Navigation Log

Ident Type
Flight plan parsing failed, navigation log unavailable